Accueil
METAR-TAF:

METAR-TAF

Aéroports :

Cassel, Allemagne

latitude: 51-24N, longitude: 009-23E, altitude: 277 m

Observation

Le bulletin a été fait il y a 21 minutes, à 01:20 UTC
Vent 4 kt de sud/sud-est, variant entre est/sud-est et sud/sud-ouest
Température 13°C
Humidité 94%
Pression 1023 hPa
Visibilité 10 km ou plus
pas de nuages en-dessous de 1500 mètres et pas de cumulonimbus.

METAR: EDVK 170120Z 16004KT 120V210 CAVOK 13/12 Q1023

Heure: 03:41 (01:41 UTC)

Prévision

Le bulletin a été fait il y a 5 heures et 41 minutes, à 20:00 UTC
Prévision valable du 16 à 21 UTC au 17 à 03 UTC
Vent 6 kt de sud
Visibilité 10 km ou plus
pas de nuages en-dessous de 1500 mètres et pas de cumulonimbus.
Temporairement
du 17 à 00 UTC au 17 à 03 UTC
Visibilité: 3500 m
brume

TAF: EDVK 162000Z 1621/1703 17006KT CAVOK TEMPO 1700/1703 3500 BR

Observations et prévisions météorologiques de plus de 4000 aéroports (messages METAR et TAF).

Les stations disponibles sont représentées par des disques jaunes et rouges sur la carte.

Passer la souris dessus pour voir le nom de la station.

Cliquer dessus pour voir les observations et prévisions météorologiques.

Pour changer de carte: cliquez sur les boutons verts avec une croix noire pour zoomer, sur le bouton vert avec un tiret pour effectuer un zoom arrière, ou sur les flèches vertes pour les cartes adjacentes.


METAR-TAF: